createdAt,value
2019-04-30T00:00:18.861Z,83.06
2019-04-30T00:01:18.984Z,82.62
2019-04-30T00:02:19.235Z,82.65
2019-04-30T00:03:19.638Z,82.55
2019-04-30T00:04:19.538Z,82.51
2019-04-30T00:05:19.241Z,82.65
2019-04-30T00:06:18.901Z,84.23
2019-04-30T00:07:19.339Z,84.64
2019-04-30T00:08:20.306Z,85.09
2019-04-30T00:09:19.421Z,86.25
2019-04-30T00:10:19.572Z,86.52
2019-04-30T00:11:19.738Z,87.08
2019-04-30T00:12:19.882Z,88.31
2019-04-30T00:13:21.014Z,88.04
2019-04-30T00:14:21.300Z,87.45
2019-04-30T00:15:20.404Z,86.11
2019-04-30T00:16:20.583Z,87.18
2019-04-30T00:17:20.752Z,88.00
2019-04-30T00:18:20.883Z,88.76
2019-04-30T00:19:21.081Z,88.96
2019-04-30T00:20:21.284Z,89.48
2019-04-30T00:21:21.460Z,89.27
2019-04-30T00:22:33.064Z,89.48
2019-04-30T00:23:29.299Z,89.48
2019-04-30T00:24:23.060Z,89.69
2019-04-30T00:25:24.896Z,89.89
2019-04-30T00:26:25.324Z,89.78
2019-04-30T00:27:28.396Z,90.09
2019-04-30T00:28:25.562Z,90.20
2019-04-30T00:29:27.091Z,90.50
2019-04-30T00:30:25.282Z,89.95
2019-04-30T00:31:25.676Z,90.09
2019-04-30T00:32:25.803Z,89.43
2019-04-30T00:33:27.487Z,89.48
2019-04-30T00:34:24.965Z,89.03
2019-04-30T00:35:25.410Z,89.54
2019-04-30T00:36:29.354Z,88.41
2019-04-30T00:37:27.238Z,89.43
2019-04-30T00:38:25.256Z,89.23
2019-04-30T00:39:27.090Z,89.13
2019-04-30T00:40:29.786Z,89.54
2019-04-30T00:41:25.977Z,89.64
2019-04-30T00:42:28.642Z,89.54
2019-04-30T00:43:25.739Z,89.03
2019-04-30T00:44:28.345Z,89.03
2019-04-30T00:45:26.679Z,89.23
2019-04-30T00:46:29.370Z,89.54
2019-04-30T00:47:26.030Z,89.95
2019-04-30T00:48:29.620Z,89.64
2019-04-30T00:49:29.238Z,88.27
2019-04-30T00:50:29.047Z,88.37
2019-04-30T00:51:27.724Z,88.57
2019-04-30T00:52:29.443Z,88.27
2019-04-30T00:53:29.201Z,88.23
2019-04-30T00:54:30.628Z,86.04
2019-04-30T00:55:27.757Z,86.14
2019-04-30T00:56:28.346Z,85.93
2019-04-30T00:57:29.078Z,86.58
2019-04-30T00:58:30.232Z,87.10
2019-04-30T00:59:29.418Z,87.30
2019-04-30T01:00:29.721Z,86.85
2019-04-30T01:01:29.898Z,86.58
2019-04-30T01:02:32.301Z,86.04
2019-04-30T01:03:30.390Z,87.30
2019-04-30T01:04:30.257Z,87.71
2019-04-30T01:05:29.755Z,87.82
2019-04-30T01:06:29.954Z,87.71
2019-04-30T01:07:30.101Z,88.02
2019-04-30T01:08:30.247Z,86.75
2019-04-30T01:09:31.254Z,86.28
2019-04-30T01:10:30.647Z,87.61
2019-04-30T01:11:30.786Z,87.92
2019-04-30T01:12:36.490Z,87.41
2019-04-30T01:13:33.157Z,87.82
2019-04-30T01:14:32.148Z,87.71
2019-04-30T01:15:32.454Z,87.82
2019-04-30T01:16:33.089Z,86.75
2019-04-30T01:17:32.870Z,87.37
2019-04-30T01:18:33.109Z,88.02
2019-04-30T01:19:33.046Z,88.47
2019-04-30T01:20:33.512Z,89.29
2019-04-30T01:21:32.638Z,89.75
2019-04-30T01:22:33.046Z,90.97
2019-04-30T01:23:33.986Z,91.63
2019-04-30T01:24:33.745Z,91.69
2019-04-30T01:25:33.394Z,91.53
2019-04-30T01:26:34.239Z,91.38
2019-04-30T01:27:33.726Z,91.90
2019-04-30T01:28:33.896Z,91.53
2019-04-30T01:29:40.791Z,91.53
2019-04-30T01:30:35.225Z,91.80
2019-04-30T01:31:37.428Z,91.28
2019-04-30T01:32:36.587Z,90.67
2019-04-30T01:33:35.732Z,90.87
2019-04-30T01:34:34.991Z,90.36
2019-04-30T01:35:35.747Z,91.53
2019-04-30T01:36:35.426Z,91.12
2019-04-30T01:37:35.576Z,91.74
2019-04-30T01:38:35.730Z,91.63
2019-04-30T01:39:35.879Z,91.74
2019-04-30T01:40:36.023Z,91.59
2019-04-30T01:41:36.199Z,91.74
2019-04-30T01:42:36.341Z,91.08
2019-04-30T01:43:36.499Z,91.59
2019-04-30T01:44:36.640Z,91.90
2019-04-30T01:45:38.587Z,91.59
2019-04-30T01:46:39.006Z,90.46
2019-04-30T01:47:37.186Z,90.97
2019-04-30T01:48:39.197Z,91.90
2019-04-30T01:49:42.867Z,91.74
2019-04-30T01:50:42.083Z,91.74
2019-04-30T01:51:38.686Z,91.74
2019-04-30T01:52:41.135Z,91.69
2019-04-30T01:53:38.687Z,91.59
2019-04-30T01:54:39.407Z,91.59
2019-04-30T01:55:39.034Z,91.28
2019-04-30T01:56:40.749Z,91.33
2019-04-30T01:57:39.056Z,91.38
2019-04-30T01:58:40.107Z,91.42
2019-04-30T01:59:39.364Z,91.02
2019-04-30T02:00:39.530Z,91.53
2019-04-30T02:01:39.715Z,91.53
2019-04-30T02:02:39.905Z,91.08
2019-04-30T02:03:40.211Z,91.80
2019-04-30T02:04:41.290Z,91.59
2019-04-30T02:05:40.440Z,91.18
2019-04-30T02:06:40.599Z,90.67
2019-04-30T02:07:41.749Z,91.22
2019-04-30T02:08:41.004Z,91.69
2019-04-30T02:09:41.759Z,91.49
2019-04-30T02:10:42.245Z,90.81
2019-04-30T02:11:41.627Z,91.53
2019-04-30T02:12:41.806Z,91.02
2019-04-30T02:13:41.981Z,90.91
2019-04-30T02:14:42.151Z,91.22
2019-04-30T02:15:43.255Z,90.50
2019-04-30T02:16:42.518Z,91.88
2019-04-30T02:17:42.766Z,90.71
2019-04-30T02:18:42.933Z,91.74
2019-04-30T02:19:54.077Z,90.87
2019-04-30T02:20:45.233Z,90.05
2019-04-30T02:21:43.375Z,89.43
2019-04-30T02:22:44.256Z,89.89
2019-04-30T02:23:43.700Z,90.50
2019-04-30T02:24:43.873Z,90.81
2019-04-30T02:25:44.062Z,90.95
2019-04-30T02:26:44.239Z,90.95
2019-04-30T02:27:44.412Z,91.88
2019-04-30T02:28:44.619Z,91.63
2019-04-30T02:29:44.790Z,90.40
2019-04-30T02:30:44.961Z,90.09
2019-04-30T02:31:45.132Z,90.09
2019-04-30T02:32:45.294Z,90.55
2019-04-30T02:33:45.487Z,90.85
2019-04-30T02:34:45.650Z,91.47
2019-04-30T02:35:45.800Z,91.99
2019-04-30T02:36:45.960Z,90.91
2019-04-30T02:37:46.084Z,91.63
2019-04-30T02:38:46.368Z,91.53
2019-04-30T02:39:46.545Z,90.71
2019-04-30T02:40:49.345Z,90.36
2019-04-30T02:41:46.852Z,90.61
2019-04-30T02:42:49.752Z,90.91
2019-04-30T02:43:49.731Z,91.84
2019-04-30T02:44:50.381Z,91.53
2019-04-30T02:45:49.843Z,91.33
2019-04-30T02:46:50.426Z,91.22
2019-04-30T02:47:50.003Z,91.63
2019-04-30T02:48:50.425Z,90.91
2019-04-30T02:49:50.021Z,91.84
2019-04-30T02:50:50.455Z,91.84
2019-04-30T02:51:49.970Z,91.33
2019-04-30T02:52:50.763Z,90.71
2019-04-30T02:53:50.525Z,90.77
2019-04-30T02:54:50.193Z,90.05
2019-04-30T02:55:49.969Z,89.50
2019-04-30T02:56:50.882Z,88.43
2019-04-30T02:57:50.672Z,87.20
2019-04-30T02:58:50.533Z,87.76
2019-04-30T02:59:51.131Z,89.03
2019-04-30T03:00:50.234Z,89.64
2019-04-30T03:01:50.424Z,89.75
2019-04-30T03:02:50.928Z,90.71
2019-04-30T03:03:50.720Z,91.22
2019-04-30T03:04:50.892Z,91.63
2019-04-30T03:05:51.080Z,91.94
2019-04-30T03:06:51.248Z,91.84
2019-04-30T03:07:53.361Z,92.50
2019-04-30T03:08:52.536Z,92.46
2019-04-30T03:09:51.774Z,91.27
2019-04-30T03:10:52.906Z,91.99
2019-04-30T03:11:53.146Z,92.29
2019-04-30T03:12:52.384Z,91.67
2019-04-30T03:13:52.518Z,92.25
2019-04-30T03:14:53.686Z,92.14
2019-04-30T03:15:53.267Z,90.50
2019-04-30T03:16:53.425Z,90.87
2019-04-30T03:17:54.141Z,91.42
2019-04-30T03:18:53.255Z,91.63
2019-04-30T03:19:53.399Z,91.59
2019-04-30T03:20:53.552Z,90.56
2019-04-30T03:21:53.738Z,90.40
2019-04-30T03:22:53.941Z,90.61
2019-04-30T03:23:54.124Z,90.61
2019-04-30T03:24:54.279Z,91.12
2019-04-30T03:25:54.437Z,90.40
2019-04-30T03:26:54.591Z,90.81
2019-04-30T03:27:54.750Z,91.12
2019-04-30T03:28:54.919Z,91.74
2019-04-30T03:29:55.095Z,91.99
2019-04-30T03:30:57.451Z,92.14
2019-04-30T03:31:56.453Z,91.74
2019-04-30T03:32:57.117Z,91.28
2019-04-30T03:34:01.514Z,90.61
2019-04-30T03:35:02.625Z,90.91
2019-04-30T03:36:01.853Z,90.36
2019-04-30T03:37:01.712Z,89.84
2019-04-30T03:37:59.098Z,89.64
2019-04-30T03:38:56.758Z,89.43
2019-04-30T03:39:56.887Z,89.60
2019-04-30T03:40:59.951Z,89.50
2019-04-30T03:41:59.698Z,88.88
2019-04-30T03:43:02.679Z,89.03
2019-04-30T03:44:16.480Z,89.33
2019-04-30T03:44:59.830Z,89.95
2019-04-30T03:46:02.811Z,90.91
2019-04-30T03:46:59.239Z,90.26
2019-04-30T03:48:00.471Z,89.54
2019-04-30T03:49:00.138Z,90.40
2019-04-30T03:50:00.105Z,90.26
2019-04-30T03:51:01.114Z,90.77
2019-04-30T03:52:00.195Z,89.54
2019-04-30T03:53:00.499Z,89.54
2019-04-30T03:54:00.552Z,89.48
2019-04-30T03:55:02.858Z,89.78
2019-04-30T03:56:01.456Z,89.78
2019-04-30T03:57:01.222Z,90.05
2019-04-30T03:58:00.325Z,89.95
2019-04-30T03:59:00.390Z,90.26
2019-04-30T04:00:00.776Z,90.16
2019-04-30T04:01:00.690Z,90.81
2019-04-30T04:02:01.764Z,90.81
2019-04-30T04:03:01.034Z,91.02
2019-04-30T04:04:01.193Z,90.55
2019-04-30T04:05:01.370Z,91.33
2019-04-30T04:06:01.497Z,90.61
2019-04-30T04:07:01.658Z,90.26
2019-04-30T04:08:01.808Z,89.95
2019-04-30T04:09:01.979Z,89.64
2019-04-30T04:10:02.148Z,89.13
2019-04-30T04:11:02.317Z,89.54
2019-04-30T04:12:02.488Z,88.41
2019-04-30T04:13:02.657Z,88.41
2019-04-30T04:14:02.823Z,89.64
2019-04-30T04:15:04.053Z,89.58
2019-04-30T04:16:04.146Z,89.03
2019-04-30T04:17:03.281Z,89.23
2019-04-30T04:18:03.441Z,89.69
2019-04-30T04:19:03.785Z,89.78
2019-04-30T04:20:04.766Z,89.23
2019-04-30T04:21:11.657Z,88.82
2019-04-30T04:22:06.262Z,88.41
2019-04-30T04:23:04.483Z,88.51
2019-04-30T04:24:04.631Z,88.62
2019-04-30T04:25:04.795Z,89.23
2019-04-30T04:26:04.928Z,88.76
2019-04-30T04:27:05.063Z,89.13
2019-04-30T04:28:05.768Z,87.85
2019-04-30T04:29:05.400Z,86.73
2019-04-30T04:30:05.582Z,87.08
2019-04-30T04:31:09.455Z,87.49
2019-04-30T04:32:05.877Z,87.90
2019-04-30T04:33:05.998Z,88.00
2019-04-30T04:34:06.136Z,86.52
2019-04-30T04:35:06.290Z,84.53
2019-04-30T04:36:06.412Z,84.64
2019-04-30T04:37:10.048Z,85.42
2019-04-30T04:38:06.765Z,83.88
2019-04-30T04:39:09.859Z,83.47
2019-04-30T04:40:09.302Z,82.82
2019-04-30T04:41:10.306Z,82.31
2019-04-30T04:42:10.113Z,83.41
2019-04-30T04:43:10.411Z,83.82
2019-04-30T04:44:12.550Z,85.09
2019-04-30T04:45:09.924Z,86.25
2019-04-30T04:46:09.347Z,87.70
2019-04-30T04:47:09.945Z,87.28
2019-04-30T04:48:09.642Z,86.05
2019-04-30T04:49:09.435Z,84.78
2019-04-30T04:50:10.328Z,83.96
2019-04-30T04:51:27.224Z,84.82
2019-04-30T04:52:11.075Z,85.30
2019-04-30T04:53:11.516Z,85.03
2019-04-30T04:54:10.551Z,84.88
2019-04-30T04:55:10.142Z,84.06
2019-04-30T04:56:10.852Z,83.90
2019-04-30T04:57:17.280Z,84.52
2019-04-30T04:58:12.813Z,85.23
2019-04-30T04:59:11.303Z,85.33
2019-04-30T05:00:10.796Z,84.41
2019-04-30T05:01:12.014Z,84.10
2019-04-30T05:02:11.800Z,84.34
2019-04-30T05:03:11.044Z,84.86
2019-04-30T05:04:11.979Z,84.82
2019-04-30T05:05:12.384Z,85.38
2019-04-30T05:06:11.976Z,84.66
2019-04-30T05:07:12.855Z,85.82
2019-04-30T05:08:11.982Z,86.24
2019-04-30T05:09:12.105Z,86.54
2019-04-30T05:10:12.241Z,86.24
2019-04-30T05:11:12.422Z,86.44
2019-04-30T05:12:12.596Z,86.65
2019-04-30T05:13:12.766Z,86.75
2019-04-30T05:14:12.907Z,86.54
2019-04-30T05:15:13.053Z,86.30
2019-04-30T05:16:13.178Z,86.33
2019-04-30T05:17:13.355Z,86.79
2019-04-30T05:18:13.506Z,87.37
2019-04-30T05:19:13.654Z,86.68
2019-04-30T05:20:13.844Z,87.46
2019-04-30T05:21:13.983Z,86.85
2019-04-30T05:22:14.168Z,87.26
2019-04-30T05:23:14.313Z,86.19
2019-04-30T05:24:14.459Z,86.40
2019-04-30T05:25:14.619Z,86.19
2019-04-30T05:26:14.798Z,86.13
2019-04-30T05:27:15.281Z,85.62
2019-04-30T05:28:15.172Z,86.27
2019-04-30T05:29:15.304Z,86.03
2019-04-30T05:30:15.432Z,86.24
2019-04-30T05:31:15.578Z,85.72
2019-04-30T05:32:15.740Z,86.07
2019-04-30T05:33:15.918Z,86.38
2019-04-30T05:34:16.056Z,86.48
2019-04-30T05:35:16.195Z,86.17
2019-04-30T05:36:16.339Z,86.58
2019-04-30T05:37:18.385Z,86.27
2019-04-30T05:38:18.833Z,86.17
2019-04-30T05:39:18.782Z,85.66
2019-04-30T05:40:18.843Z,86.38
2019-04-30T05:41:19.140Z,86.27
2019-04-30T05:42:18.464Z,86.54
2019-04-30T05:43:19.212Z,86.13
2019-04-30T05:44:18.535Z,86.33
2019-04-30T05:45:19.405Z,85.62
2019-04-30T05:46:19.653Z,84.55
2019-04-30T05:47:19.715Z,84.45
2019-04-30T05:48:19.262Z,84.25
2019-04-30T05:49:20.245Z,84.10
2019-04-30T05:50:20.099Z,83.59
2019-04-30T05:51:21.325Z,81.85
2019-04-30T05:52:19.995Z,82.53
2019-04-30T05:53:20.108Z,82.12
2019-04-30T05:54:19.348Z,81.91
2019-04-30T05:55:19.947Z,80.64
2019-04-30T05:56:21.284Z,81.15
2019-04-30T05:57:19.839Z,79.82
2019-04-30T05:58:21.777Z,79.93
2019-04-30T05:59:20.641Z,80.23
2019-04-30T06:00:21.230Z,79.79
2019-04-30T06:01:20.453Z,78.97
2019-04-30T06:02:21.282Z,79.99
2019-04-30T06:03:28.185Z,79.38
2019-04-30T06:04:23.007Z,79.48
2019-04-30T06:05:21.209Z,79.58
2019-04-30T06:06:22.268Z,78.42
2019-04-30T06:07:21.503Z,78.72
2019-04-30T06:08:22.287Z,79.85
2019-04-30T06:09:31.124Z,78.21
2019-04-30T06:10:23.986Z,78.31
2019-04-30T06:11:23.167Z,77.80
2019-04-30T06:12:22.392Z,78.31
2019-04-30T06:13:22.523Z,78.31
2019-04-30T06:14:22.651Z,78.66
2019-04-30T06:15:23.295Z,78.83
2019-04-30T06:16:23.031Z,78.97
2019-04-30T06:17:23.164Z,79.89
2019-04-30T06:18:23.303Z,80.09
2019-04-30T06:19:23.427Z,78.94
2019-04-30T06:20:23.592Z,81.81
2019-04-30T06:21:23.712Z,81.81
2019-04-30T06:22:23.849Z,81.91
2019-04-30T06:23:23.992Z,82.26
2019-04-30T06:24:24.127Z,83.59
2019-04-30T06:25:31.682Z,82.60
2019-04-30T06:26:26.500Z,83.18
2019-04-30T06:27:24.691Z,84.04
2019-04-30T06:28:24.813Z,84.04
2019-04-30T06:29:24.945Z,82.81
2019-04-30T06:30:25.287Z,83.63
2019-04-30T06:31:32.182Z,83.28
2019-04-30T06:32:26.522Z,83.18
2019-04-30T06:33:25.745Z,82.46
2019-04-30T06:34:25.866Z,81.98
2019-04-30T06:35:26.019Z,79.72
2019-04-30T06:36:26.193Z,79.79
2019-04-30T06:37:26.314Z,79.07
2019-04-30T06:38:26.437Z,78.72
2019-04-30T06:39:28.727Z,78.52
2019-04-30T06:40:26.689Z,78.01
2019-04-30T06:41:27.286Z,79.03
2019-04-30T06:42:27.024Z,78.01
2019-04-30T06:43:28.742Z,77.97
2019-04-30T06:44:37.012Z,76.95
2019-04-30T06:45:29.551Z,78.25
2019-04-30T06:46:28.815Z,80.09
2019-04-30T06:47:33.186Z,79.48
2019-04-30T06:48:30.153Z,79.00
2019-04-30T06:49:29.393Z,78.66
2019-04-30T06:50:29.320Z,78.76
2019-04-30T06:51:30.774Z,78.42
2019-04-30T06:52:29.409Z,78.21
2019-04-30T06:53:30.180Z,78.42
2019-04-30T06:54:29.308Z,78.17
2019-04-30T06:55:30.937Z,77.05
2019-04-30T06:56:29.691Z,77.09
2019-04-30T06:57:29.826Z,77.91
2019-04-30T06:58:30.306Z,78.17
2019-04-30T06:59:30.167Z,77.63
2019-04-30T07:00:33.704Z,75.62
2019-04-30T07:01:31.587Z,73.64
2019-04-30T07:02:31.036Z,72.21
2019-04-30T07:03:32.079Z,72.00
2019-04-30T07:04:31.159Z,71.84
2019-04-30T07:05:31.312Z,70.57
2019-04-30T07:06:36.708Z,70.57
2019-04-30T07:07:38.956Z,67.73
2019-04-30T07:08:39.547Z,66.44
2019-04-30T07:09:48.825Z,65.39
2019-04-30T07:10:34.073Z,64.99
2019-04-30T07:11:32.305Z,65.16
2019-04-30T07:12:34.104Z,63.51
2019-04-30T07:13:33.581Z,63.58
2019-04-30T07:14:33.818Z,60.30
2019-04-30T07:15:33.059Z,61.47
2019-04-30T07:16:33.218Z,61.83
2019-04-30T07:17:33.368Z,62.98
2019-04-30T07:18:33.520Z,63.70
2019-04-30T07:19:50.211Z,61.98
2019-04-30T07:20:35.886Z,62.62
2019-04-30T07:21:36.581Z,63.87
2019-04-30T07:23:38.589Z,61.98
2019-04-30T07:24:34.674Z,60.33
2019-04-30T07:25:34.825Z,61.32
2019-04-30T07:26:35.018Z,59.56
2019-04-30T07:27:35.183Z,58.92
2019-04-30T07:28:44.717Z,57.60
2019-04-30T07:29:39.199Z,57.64
2019-04-30T07:30:35.683Z,57.43
2019-04-30T07:31:35.824Z,58.39
2019-04-30T07:32:35.969Z,56.18
2019-04-30T07:33:36.163Z,54.13
2019-04-30T07:34:37.160Z,54.71
2019-04-30T07:35:39.770Z,54.69
2019-04-30T07:36:48.395Z,52.46
2019-04-30T07:37:39.784Z,50.95
2019-04-30T07:38:45.632Z,51.73
2019-04-30T07:39:39.344Z,53.32
2019-04-30T07:40:39.073Z,54.18
2019-04-30T07:41:40.267Z,56.99
2019-04-30T07:42:44.516Z,56.90
2019-04-30T07:43:40.024Z,54.97
2019-04-30T07:44:39.533Z,52.39
2019-04-30T07:45:40.304Z,51.96
2019-04-30T07:46:43.862Z,52.81
2019-04-30T07:47:40.764Z,51.81
2019-04-30T07:48:40.281Z,52.99
2019-04-30T07:49:49.972Z,52.61
2019-04-30T07:50:41.409Z,49.82
2019-04-30T07:51:41.678Z,48.89
2019-04-30T07:52:57.605Z,47.45
2019-04-30T07:53:42.032Z,47.05
2019-04-30T07:54:40.258Z,47.15
2019-04-30T07:55:40.400Z,45.70
2019-04-30T07:56:41.700Z,45.62
2019-04-30T07:57:41.696Z,46.97
2019-04-30T07:58:40.812Z,48.05
2019-04-30T07:59:40.994Z,49.08
2019-04-30T08:00:41.162Z,47.62
2019-04-30T08:02:00.202Z,46.85
2019-04-30T08:02:43.659Z,45.52
2019-04-30T08:03:42.831Z,44.75
2019-04-30T08:04:41.787Z,45.27
2019-04-30T08:05:42.826Z,45.72
2019-04-30T08:06:42.098Z,46.26
2019-04-30T08:07:42.292Z,46.04
2019-04-30T08:08:42.476Z,44.89
2019-04-30T08:09:36.841Z,62.70
2019-04-30T08:09:42.725Z,44.57
2019-04-30T08:10:42.890Z,45.74
2019-04-30T08:11:43.819Z,49.26
2019-04-30T08:12:45.067Z,50.82
2019-04-30T08:13:43.600Z,50.01
2019-04-30T08:14:43.508Z,50.34
2019-04-30T08:15:43.651Z,51.07
2019-04-30T08:16:43.789Z,50.44
2019-04-30T08:17:44.049Z,49.21
2019-04-30T08:18:44.221Z,48.08
2019-04-30T08:19:44.817Z,46.95
2019-04-30T08:20:44.586Z,45.82
2019-04-30T08:21:44.728Z,45.84
2019-04-30T08:22:44.889Z,46.99
2019-04-30T08:23:45.029Z,48.93
2019-04-30T08:24:45.225Z,52.33
2019-04-30T08:25:45.396Z,52.94
2019-04-30T08:26:45.555Z,49.46
2019-04-30T08:27:45.706Z,47.07
2019-04-30T08:28:45.872Z,45.92
2019-04-30T08:29:46.057Z,45.57
2019-04-30T08:30:46.235Z,45.03
2019-04-30T08:31:48.994Z,47.77
2019-04-30T08:32:46.636Z,50.14
2019-04-30T08:33:48.924Z,52.56
2019-04-30T08:34:47.338Z,54.36
2019-04-30T08:35:47.138Z,55.58
2019-04-30T08:36:48.891Z,56.04
2019-04-30T08:37:49.508Z,57.99
2019-04-30T08:38:49.519Z,57.28
2019-04-30T08:39:49.693Z,57.61
2019-04-30T08:40:56.144Z,59.37
2019-04-30T08:41:50.288Z,59.47
2019-04-30T08:42:49.765Z,58.63
2019-04-30T08:43:49.834Z,57.79
2019-04-30T08:44:49.884Z,57.18
2019-04-30T08:45:49.024Z,57.59
2019-04-30T08:46:49.227Z,56.65
2019-04-30T08:47:50.369Z,56.74
2019-04-30T08:48:51.609Z,56.54
2019-04-30T08:49:50.871Z,55.71
2019-04-30T08:50:50.263Z,54.94
2019-04-30T08:51:50.748Z,55.12
2019-04-30T08:52:51.009Z,51.28
2019-04-30T08:53:50.383Z,50.72
2019-04-30T08:54:50.538Z,51.17
2019-04-30T08:55:50.700Z,52.44
2019-04-30T08:56:50.827Z,51.17
2019-04-30T08:57:50.974Z,50.89
2019-04-30T08:58:51.124Z,52.64
2019-04-30T08:59:51.251Z,53.80
2019-04-30T09:00:51.437Z,54.36
2019-04-30T09:01:51.567Z,55.12
2019-04-30T09:02:51.728Z,55.83
2019-04-30T09:03:51.914Z,55.68
2019-04-30T09:04:52.073Z,54.61
2019-04-30T09:05:52.239Z,52.56
2019-04-30T09:06:53.340Z,53.65
2019-04-30T09:07:52.603Z,50.77
2019-04-30T09:08:52.777Z,50.34
2019-04-30T09:09:52.930Z,51.81
2019-04-30T09:10:53.119Z,52.11
2019-04-30T09:11:55.561Z,51.17
2019-04-30T09:12:54.409Z,49.51
2019-04-30T09:13:53.533Z,49.05
2019-04-30T09:14:53.686Z,46.47
2019-04-30T09:15:53.817Z,45.44
2019-04-30T09:16:54.006Z,45.89
2019-04-30T09:18:03.207Z,45.74
2019-04-30T09:18:56.416Z,44.19
2019-04-30T09:19:54.839Z,44.37
2019-04-30T09:21:03.443Z,44.47
2019-04-30T09:21:55.996Z,45.50
2019-04-30T09:22:55.121Z,44.97
2019-04-30T09:23:55.279Z,44.41
2019-04-30T09:24:55.417Z,44.85
2019-04-30T09:25:55.558Z,47.04
2019-04-30T09:26:55.752Z,47.72
2019-04-30T09:27:55.911Z,45.61
2019-04-30T09:28:56.353Z,46.51
2019-04-30T09:29:56.255Z,47.08
2019-04-30T09:30:58.654Z,49.15
2019-04-30T09:31:56.646Z,49.66
2019-04-30T09:32:56.814Z,50.06
2019-04-30T09:34:00.653Z,48.55
2019-04-30T09:34:58.747Z,46.19
2019-04-30T09:35:59.549Z,46.13
2019-04-30T09:36:58.883Z,45.89
2019-04-30T09:38:01.408Z,45.78
2019-04-30T09:39:01.545Z,46.17
2019-04-30T09:39:59.214Z,45.70
2019-04-30T09:40:59.376Z,47.92
2019-04-30T09:41:59.617Z,45.18
2019-04-30T09:43:00.444Z,45.56
2019-04-30T09:43:59.758Z,46.01
2019-04-30T09:44:59.886Z,46.76
2019-04-30T09:45:59.346Z,47.79
2019-04-30T09:47:00.191Z,46.45
2019-04-30T09:47:59.364Z,46.15
2019-04-30T09:48:59.872Z,45.95
2019-04-30T09:50:00.702Z,46.86
2019-04-30T09:51:01.000Z,45.90
2019-04-30T09:52:01.362Z,47.12
2019-04-30T09:53:01.299Z,46.99
2019-04-30T09:54:03.149Z,45.89
2019-04-30T09:55:02.085Z,45.50
2019-04-30T09:56:00.717Z,47.24
2019-04-30T09:57:00.872Z,47.79
2019-04-30T09:58:01.038Z,47.64
2019-04-30T09:59:01.196Z,49.16
2019-04-30T10:00:01.324Z,47.40
2019-04-30T10:01:01.531Z,47.62
2019-04-30T10:02:01.694Z,46.53
2019-04-30T10:03:02.063Z,46.76
2019-04-30T10:04:02.347Z,48.50
2019-04-30T10:05:02.797Z,49.33
2019-04-30T10:06:02.486Z,49.41
2019-04-30T10:07:03.354Z,48.70
2019-04-30T10:08:02.863Z,47.89
2019-04-30T10:09:03.019Z,48.37
2019-04-30T10:10:03.168Z,47.62
2019-04-30T10:11:03.307Z,45.97
2019-04-30T10:12:03.449Z,45.70
2019-04-30T10:13:03.603Z,43.64
2019-04-30T10:14:03.780Z,42.11
2019-04-30T10:15:03.917Z,42.47
2019-04-30T10:16:04.065Z,44.47
2019-04-30T10:17:04.849Z,45.66
2019-04-30T10:18:04.366Z,47.67
2019-04-30T10:19:04.540Z,47.51
2019-04-30T10:20:04.705Z,49.45
2019-04-30T10:21:05.863Z,49.58
2019-04-30T10:22:05.041Z,50.46
2019-04-30T10:23:05.860Z,50.74
2019-04-30T10:24:14.777Z,47.87
2019-04-30T10:25:09.274Z,46.19
2019-04-30T10:26:05.823Z,45.64
2019-04-30T10:27:10.497Z,43.88
2019-04-30T10:28:10.035Z,44.07
2019-04-30T10:29:06.433Z,44.43
2019-04-30T10:30:06.563Z,46.49
2019-04-30T10:31:06.742Z,47.95
2019-04-30T10:32:08.697Z,47.16
2019-04-30T10:33:07.058Z,47.04
2019-04-30T10:34:07.198Z,46.39
2019-04-30T10:35:07.331Z,46.19
2019-04-30T10:36:09.295Z,46.19
2019-04-30T10:37:09.006Z,45.38
2019-04-30T10:38:09.716Z,45.89
2019-04-30T10:39:08.864Z,45.58
2019-04-30T10:40:10.084Z,45.30
2019-04-30T10:41:08.901Z,45.18
2019-04-30T10:42:09.504Z,43.37
2019-04-30T10:43:09.034Z,44.21
2019-04-30T10:44:09.790Z,46.15
2019-04-30T10:45:09.790Z,44.59
2019-04-30T10:46:10.123Z,44.47
2019-04-30T10:47:09.423Z,44.33
2019-04-30T10:48:10.509Z,43.30
2019-04-30T10:49:09.658Z,43.59
2019-04-30T10:50:10.061Z,42.94
2019-04-30T10:51:11.037Z,42.76
2019-04-30T10:52:10.158Z,43.71
2019-04-30T10:53:12.422Z,44.37
2019-04-30T10:54:23.192Z,43.06
2019-04-30T10:55:12.764Z,43.71
2019-04-30T10:56:11.072Z,45.12
2019-04-30T10:57:11.201Z,45.58
2019-04-30T10:58:11.409Z,48.02
2019-04-30T10:59:11.588Z,49.24
2019-04-30T11:00:12.370Z,49.33
2019-04-30T11:01:11.911Z,48.83
2019-04-30T11:02:12.097Z,47.27
2019-04-30T11:03:19.914Z,45.21
2019-04-30T11:04:14.486Z,45.79
2019-04-30T11:05:12.603Z,44.11
2019-04-30T11:06:13.376Z,45.00
2019-04-30T11:07:12.920Z,44.09
2019-04-30T11:08:13.070Z,45.56
2019-04-30T11:09:13.260Z,46.33
2019-04-30T11:10:14.371Z,46.31
2019-04-30T11:11:13.630Z,45.66
2019-04-30T11:12:13.797Z,45.21
2019-04-30T11:13:13.962Z,44.37
2019-04-30T11:14:14.162Z,43.28
2019-04-30T11:15:14.333Z,44.78
2019-04-30T11:16:15.624Z,45.62
2019-04-30T11:17:15.758Z,45.61
2019-04-30T11:18:14.980Z,46.69
2019-04-30T11:19:15.268Z,46.06
2019-04-30T11:20:15.457Z,45.32
2019-04-30T11:21:15.600Z,45.00
2019-04-30T11:22:15.689Z,44.59
2019-04-30T11:23:15.952Z,45.14
2019-04-30T11:24:16.276Z,46.21
2019-04-30T11:25:16.395Z,47.99
2019-04-30T11:26:16.989Z,50.37
2019-04-30T11:27:17.255Z,50.77
2019-04-30T11:28:17.172Z,49.91
2019-04-30T11:29:17.100Z,48.85
2019-04-30T11:30:21.254Z,47.60
2019-04-30T11:31:19.382Z,45.94
2019-04-30T11:32:17.608Z,47.43
2019-04-30T11:33:17.864Z,45.27
2019-04-30T11:34:17.884Z,45.32
2019-04-30T11:35:20.602Z,45.86
2019-04-30T11:36:19.400Z,47.95
2019-04-30T11:37:19.403Z,49.26
2019-04-30T11:38:20.347Z,47.72
2019-04-30T11:39:19.820Z,47.80
2019-04-30T11:40:31.044Z,47.07
2019-04-30T11:41:30.036Z,45.94
2019-04-30T11:42:21.400Z,46.14
2019-04-30T11:43:20.197Z,45.82
2019-04-30T11:44:30.246Z,46.26
2019-04-30T11:45:22.016Z,45.26
2019-04-30T11:46:20.151Z,45.84
2019-04-30T11:47:20.302Z,44.23
2019-04-30T11:48:20.472Z,45.24
2019-04-30T11:49:21.395Z,45.03
2019-04-30T11:50:20.775Z,44.53
2019-04-30T11:51:20.946Z,43.62
2019-04-30T11:52:21.136Z,44.43
2019-04-30T11:53:27.598Z,44.11
2019-04-30T11:54:23.486Z,43.68
2019-04-30T11:55:21.713Z,42.72
2019-04-30T11:56:21.885Z,42.80
2019-04-30T11:57:23.060Z,42.68
2019-04-30T11:58:22.234Z,43.82
2019-04-30T11:59:22.407Z,43.65
2019-04-30T12:00:22.581Z,42.78
2019-04-30T12:01:22.785Z,43.71
2019-04-30T12:02:22.953Z,43.80
2019-04-30T12:03:23.129Z,44.31
2019-04-30T12:04:23.288Z,44.71
2019-04-30T12:05:23.439Z,43.99
2019-04-30T12:06:23.606Z,45.98
2019-04-30T12:07:23.744Z,45.28
2019-04-30T12:08:26.393Z,45.68
2019-04-30T12:09:24.111Z,45.70
2019-04-30T12:10:24.253Z,45.30
2019-04-30T12:11:24.453Z,46.41
2019-04-30T12:12:24.595Z,45.90
2019-04-30T12:13:24.747Z,47.12
2019-04-30T12:14:24.881Z,44.57
2019-04-30T12:15:25.037Z,45.81
2019-04-30T12:16:25.213Z,45.48
2019-04-30T12:17:25.348Z,45.78
2019-04-30T12:18:25.500Z,44.29
2019-04-30T12:19:25.635Z,45.89
2019-04-30T12:20:25.774Z,43.24
2019-04-30T12:21:25.933Z,44.85
2019-04-30T12:22:26.109Z,45.26
2019-04-30T12:23:26.244Z,44.95
2019-04-30T12:24:26.491Z,43.65
2019-04-30T12:25:26.624Z,43.12
2019-04-30T12:26:28.787Z,45.14
2019-04-30T12:27:28.777Z,43.42
2019-04-30T12:28:27.400Z,43.91
2019-04-30T12:29:29.133Z,43.46
2019-04-30T12:30:28.969Z,42.74
2019-04-30T12:31:29.746Z,42.10
2019-04-30T12:32:29.865Z,41.29
2019-04-30T12:33:27.911Z,40.67
2019-04-30T12:34:28.060Z,42.05
2019-04-30T12:35:28.206Z,41.67
2019-04-30T12:36:28.892Z,42.52
2019-04-30T12:37:29.521Z,38.92
2019-04-30T12:38:29.877Z,40.42
2019-04-30T12:39:30.078Z,41.06
2019-04-30T12:40:32.060Z,43.04
2019-04-30T12:41:30.220Z,42.86
2019-04-30T12:42:29.429Z,43.32
2019-04-30T12:43:29.919Z,42.60
2019-04-30T12:44:29.823Z,43.51
2019-04-30T12:45:29.935Z,40.28
2019-04-30T12:46:30.087Z,41.08
2019-04-30T12:47:30.216Z,41.97
2019-04-30T12:48:30.349Z,42.96
2019-04-30T12:49:30.466Z,42.25
2019-04-30T12:50:30.611Z,42.55
2019-04-30T12:51:30.747Z,43.77
2019-04-30T12:52:30.884Z,40.92
2019-04-30T12:53:31.036Z,41.85
2019-04-30T12:54:31.213Z,41.35